Map

Track Data

SID SEASON NUMBER BASIN SUBBASIN NAME ISO_TIME NATURE LAT LON WMO_WIND WMO_PRES WMO_AGENCY TRACK_TYPE DIST2LAND LANDFALL IFLAG USA_AGENCY USA_ATCF_ID USA_LAT USA_LON USA_RECORD USA_STATUS USA_WIND USA_PRES USA_SSHS USA_R34_NE USA_R34_SE USA_R34_SW USA_R34_NW USA_R50_NE USA_R50_SE USA_R50_SW USA_R50_NW USA_R64_NE USA_R64_SE USA_R64_SW USA_R64_NW USA_POCI USA_ROCI USA_RMW USA_EYE TOKYO_LAT TOKYO_LON TOKYO_GRADE TOKYO_WIND TOKYO_PRES TOKYO_R50_DIR TOKYO_R50_LONG TOKYO_R50_SHORT TOKYO_R30_DIR TOKYO_R30_LONG TOKYO_R30_SHORT TOKYO_LAND CMA_LAT CMA_LON CMA_CAT CMA_WIND CMA_PRES HKO_LAT HKO_LON HKO_CAT HKO_WIND HKO_PRES NEWDELHI_LAT NEWDELHI_LON NEWDELHI_GRADE NEWDELHI_WIND NEWDELHI_PRES NEWDELHI_CI NEWDELHI_DP NEWDELHI_POCI REUNION_LAT REUNION_LON REUNION_TYPE REUNION_WIND REUNION_PRES REUNION_TNUM REUNION_CI REUNION_RMW REUNION_R34_NE REUNION_R34_SE REUNION_R34_SW REUNION_R34_NW REUNION_R50_NE REUNION_R50_SE REUNION_R50_SW REUNION_R50_NW REUNION_R64_NE REUNION_R64_SE REUNION_R64_SW REUNION_R64_NW BOM_LAT BOM_LON BOM_TYPE BOM_WIND BOM_PRES BOM_TNUM BOM_CI BOM_RMW BOM_R34_NE BOM_R34_SE BOM_R34_SW BOM_R34_NW BOM_R50_NE BOM_R50_SE BOM_R50_SW BOM_R50_NW BOM_R64_NE BOM_R64_SE BOM_R64_SW BOM_R64_NW BOM_ROCI BOM_POCI BOM_EYE BOM_POS_METHOD BOM_PRES_METHOD NADI_LAT NADI_LON NADI_CAT NADI_WIND NADI_PRES WELLINGTON_LAT WELLINGTON_LON WELLINGTON_WIND WELLINGTON_PRES DS824_LAT DS824_LON DS824_STAGE DS824_WIND DS824_PRES TD9636_LAT TD9636_LON TD9636_STAGE TD9636_WIND TD9636_PRES TD9635_LAT TD9635_LON TD9635_WIND TD9635_PRES TD9635_ROCI NEUMANN_LAT NEUMANN_LON NEUMANN_CLASS NEUMANN_WIND NEUMANN_PRES MLC_LAT MLC_LON MLC_CLASS MLC_WIND MLC_PRES USA_GUST BOM_GUST BOM_GUST_PER REUNION_GUST REUNION_GUST_PER USA_SEAHGT USA_SEARAD_NE USA_SEARAD_SE USA_SEARAD_SW USA_SEARAD_NW STORM_SPEED STORM_DIR
1884263N16125 1884 37 WP MM NOT_NAMED 1884-09-18 16:00:00 NR 15.8000 124.800 main 208 208 __________O___ -1 15.8000 124.800 4 1 0
1884263N16125 1884 37 WP MM NOT_NAMED 1884-09-18 18:00:00 NR 15.7911 124.784 main 208 206 __________P___ -1 15.7911 124.784 4 1 263
1884263N16125 1884 37 WP MM NOT_NAMED 1884-09-18 21:00:00 NR 15.7936 124.748 main 206 206 __________P___ -1 15.7936 124.748 4 1 294
1884263N16125 1884 37 WP MM NOT_NAMED 1884-09-19 00:00:00 NR 15.8369 124.679 main 206 206 __________P___ -1 15.8369 124.679 4 2 309
1884263N16125 1884 37 WP MM NOT_NAMED 1884-09-19 03:00:00 NR 15.9452 124.556 main 215 224 __________P___ -1 15.9452 124.556 4 4 313
1884263N16125 1884 37 WP MM NOT_NAMED 1884-09-19 04:00:00 NR 16.0000 124.500 main 224 221 __________O___ -1 16.0000 124.500 4 5 317
1884263N16125 1884 37 WP MM NOT_NAMED 1884-09-19 06:00:00 NR 16.1404 124.363 main 221 179 __________P___ -1 16.1404 124.363 4 7 318
1884263N16125 1884 37 WP MM NOT_NAMED 1884-09-19 09:00:00 NR 16.4139 124.106 main 179 140 __________P___ -1 16.4139 124.106 4 8 318
1884263N16125 1884 37 WP MM NOT_NAMED 1884-09-19 12:00:00 NR 16.7380 123.810 main 140 106 __________P___ -1 16.7380 123.810 4 9 319
1884263N16125 1884 37 WP MM NOT_NAMED 1884-09-19 15:00:00 NR 17.0844 123.502 main 106 98 __________P___ -1 17.0844 123.502 4 9 320
1884263N16125 1884 37 WP MM NOT_NAMED 1884-09-19 16:00:00 NR 17.2000 123.400 main 98 85 __________O___ -1 17.2000 123.400 4 9 320
1884263N16125 1884 37 WP MM NOT_NAMED 1884-09-19 18:00:00 NR 17.4135 123.211 main 85 69 __________P___ -1 17.4135 123.211 4 8 320
1884263N16125 1884 37 WP MM NOT_NAMED 1884-09-19 21:00:00 NR 17.7403 122.928 main 69 47 __________P___ -1 17.7403 122.928 4 8 321
1884263N16125 1884 37 WP MM NOT_NAMED 1884-09-20 00:00:00 NR 18.0691 122.651 main 47 10 __________P___ -1 18.0691 122.651 4 8 322
1884263N16125 1884 37 WP MM NOT_NAMED 1884-09-20 03:00:00 NR 18.3938 122.385 main 10 0 __________P___ -1 18.3938 122.385 4 8 322
1884263N16125 1884 37 WP MM NOT_NAMED 1884-09-20 04:00:00 NR 18.5000 122.300 main 11 11 __________O___ -1 18.5000 122.300 4 8 322
1884263N16125 1884 37 WP MM NOT_NAMED 1884-09-20 06:00:00 NR 18.7030 122.128 main 33 33 __________P___ -1 18.7030 122.128 4 8 322
1884263N16125 1884 37 WP MM NOT_NAMED 1884-09-20 09:00:00 NR 19.0013 121.882 main 70 70 __________P___ -1 19.0013 121.882 4 7 323
1884263N16125 1884 37 WP MM NOT_NAMED 1884-09-20 12:00:00 NR 19.2975 121.657 main 94 91 __________P___ -1 19.2975 121.657 4 7 326
1884263N16125 1884 37 WP MM NOT_NAMED 1884-09-20 15:00:00 NR 19.5979 121.459 main 123 123 __________P___ -1 19.5979 121.459 4 7 329
1884263N16125 1884 37 WP MM NOT_NAMED 1884-09-20 16:00:00 NR 19.7000 121.400 main 133 133 __________O___ -1 19.7000 121.400 4 6 331
1884263N16125 1884 37 WP MM NOT_NAMED 1884-09-20 18:00:00 NR 19.8768 121.296 main 151 151 __________P___ -1 19.8768 121.296 4 6 334
1884263N16125 1884 37 WP MM NOT_NAMED 1884-09-20 21:00:00 NR 20.1475 121.165 main 170 157 __________P___ -1 20.1475 121.165 4 6 338
1884263N16125 1884 37 WP MM NOT_NAMED 1884-09-21 00:00:00 NR 20.4584 121.052 main 157 123 __________P___ -1 20.4584 121.052 4 7 343
1884263N16125 1884 37 WP MM NOT_NAMED 1884-09-21 03:00:00 NR 20.8468 120.940 main 123 100 __________P___ -1 20.8468 120.940 4 8 345
1884263N16125 1884 37 WP MM NOT_NAMED 1884-09-21 04:00:00 NR 21.0000 120.900 main 100 55 __________O___ -1 21.0000 120.900 4 11 344
1884263N16125 1884 37 WP MM NOT_NAMED 1884-09-21 06:00:00 NR 21.3619 120.783 main 55 10 __________P___ -1 21.3619 120.783 4 12 344
1884263N16125 1884 37 WP MM NOT_NAMED 1884-09-21 09:00:00 NR 21.9867 120.600 main 10 0 __________P___ -1 21.9867 120.600 4 14 346
1884263N16125 1884 37 WP MM NOT_NAMED 1884-09-21 12:00:00 NR 22.6709 120.436 main 0 0 __________P___ -1 22.6709 120.436 4 14 349
1884263N16125 1884 37 WP MM NOT_NAMED 1884-09-21 15:00:00 NR 23.3708 120.322 main 0 0 __________P___ -1 23.3708 120.322 4 14 353
1884263N16125 1884 37 WP MM NOT_NAMED 1884-09-21 16:00:00 NR 23.6000 120.300 main 0 0 __________O___ -1 23.6000 120.300 4 13 356
1884263N16125 1884 37 WP MM NOT_NAMED 1884-09-21 18:00:00 NR 24.0405 120.282 main 0 10 __________P___ -1 24.0405 120.282 4 13 1
1884263N16125 1884 37 WP MM NOT_NAMED 1884-09-21 21:00:00 NR 24.6956 120.313 main 41 41 __________P___ -1 24.6956 120.313 4 13 5
1884263N16125 1884 37 WP MM NOT_NAMED 1884-09-22 00:00:00 NR 25.3271 120.403 main 69 70 __________P___ -1 25.3271 120.403 4 12 10
1884263N16125 1884 37 WP MM NOT_NAMED 1884-09-22 03:00:00 NR 25.9163 120.544 main 79 74 __________P___ -1 25.9163 120.544 4 12 13
1884263N16125 1884 37 WP MM NOT_NAMED 1884-09-22 04:00:00 NR 26.1000 120.600 main 74 63 __________O___ -1 26.1000 120.600 4 11 16
1884263N16125 1884 37 WP MM NOT_NAMED 1884-09-22 06:00:00 NR 26.4426 120.716 main 63 51 __________P___ -1 26.4426 120.716 4 10 20
1884263N16125 1884 37 WP MM NOT_NAMED 1884-09-22 09:00:00 NR 26.9125 120.927 main 51 45 __________P___ -1 26.9125 120.927 4 10 24
1884263N16125 1884 37 WP MM NOT_NAMED 1884-09-22 12:00:00 NR 27.3460 121.167 main 54 34 __________P___ -1 27.3460 121.167 4 10 27
1884263N16125 1884 37 WP MM NOT_NAMED 1884-09-22 15:00:00 NR 27.7620 121.418 main 34 29 __________P___ -1 27.7620 121.418 4 9 28
1884263N16125 1884 37 WP MM NOT_NAMED 1884-09-22 16:00:00 NR 27.9000 121.500 main 29 11 __________O___ -1 27.9000 121.500 4 9 27
1884263N16125 1884 37 WP MM NOT_NAMED 1884-09-22 18:00:00 NR 28.1783 121.660 main 14 9 __________P___ -1 28.1783 121.660 4 9 26
1884263N16125 1884 37 WP MM NOT_NAMED 1884-09-22 21:00:00 NR 28.6007 121.890 main 22 19 __________P___ -1 28.6007 121.890 4 9 25
1884263N16125 1884 37 WP MM NOT_NAMED 1884-09-23 00:00:00 NR 29.0276 122.111 main 24 14 __________P___ -1 29.0276 122.111 4 9 24
1884263N16125 1884 37 WP MM NOT_NAMED 1884-09-23 03:00:00 NR 29.4568 122.328 main 38 38 __________P___ -1 29.4568 122.328 4 9 24
1884263N16125 1884 37 WP MM NOT_NAMED 1884-09-23 04:00:00 NR 29.6000 122.400 main 49 __________O___ -1 29.6000 122.400 7 9 25

Digital Typhoon Data and Search

About IBTrACS Database

This database is a web-friendly format of International Best Track Archive for Climate Stewardship (IBTrACS), a global best track data archive curated by NOAA dating back to 1842.

Updated: 2021-11-26